sensor_id;sensor_type;location;lat;lon;timestamp;pressure;altitude;pressure_sealevel;temperature;humidity
58875;BME280;44652;49.040;12.126;2023-12-28T07:04:36;97877.13;;;1.59;100.00
58875;BME280;44652;49.040;12.126;2023-12-28T07:07:04;97865.16;;;1.61;100.00
58875;BME280;44652;49.040;12.126;2023-12-28T07:09:31;97865.44;;;1.79;100.00
58875;BME280;44652;49.040;12.126;2023-12-28T07:11:58;97863.41;;;1.88;100.00
58875;BME280;44652;49.040;12.126;2023-12-28T07:14:25;97868.50;;;2.00;100.00
58875;BME280;44652;49.040;12.126;2023-12-28T07:16:52;97857.03;;;1.83;100.00
58875;BME280;44652;49.040;12.126;2023-12-28T07:19:19;97883.97;;;2.11;100.00
58875;BME280;44652;49.040;12.126;2023-12-28T07:21:46;97881.56;;;2.14;100.00
58875;BME280;44652;49.040;12.126;2023-12-28T07:24:12;97878.31;;;2.32;100.00
58875;BME280;44652;49.040;12.126;2023-12-28T07:26:39;97859.50;;;2.36;100.00
58875;BME280;44652;49.040;12.126;2023-12-28T07:29:06;97865.69;;;2.38;100.00
58875;BME280;44652;49.040;12.126;2023-12-28T07:31:33;97871.75;;;2.52;100.00
58875;BME280;44652;49.040;12.126;2023-12-28T07:33:59;97883.13;;;2.54;100.00
58875;BME280;44652;49.040;12.126;2023-12-28T07:36:26;97874.53;;;2.55;100.00
58875;BME280;44652;49.040;12.126;2023-12-28T07:38:53;97869.00;;;2.63;100.00
58875;BME280;44652;49.040;12.126;2023-12-28T07:41:20;97886.13;;;2.60;100.00
58875;BME280;44652;49.040;12.126;2023-12-28T07:43:46;97889.66;;;2.75;100.00
58875;BME280;44652;49.040;12.126;2023-12-28T07:46:13;97871.97;;;2.70;100.00
58875;BME280;44652;49.040;12.126;2023-12-28T07:48:40;97871.34;;;2.74;100.00
58875;BME280;44652;49.040;12.126;2023-12-28T07:51:13;97901.81;;;2.89;100.00
58875;BME280;44652;49.040;12.126;2023-12-28T07:53:39;97891.31;;;2.88;100.00
58875;BME280;44652;49.040;12.126;2023-12-28T07:56:06;97896.25;;;2.98;100.00
58875;BME280;44652;49.040;12.126;2023-12-28T07:58:33;97892.47;;;2.93;100.00
58875;BME280;44652;49.040;12.126;2023-12-28T08:01:01;97888.53;;;3.00;100.00
58875;BME280;44652;49.040;12.126;2023-12-28T08:03:27;97889.09;;;3.24;100.00
58875;BME280;44652;49.040;12.126;2023-12-28T08:05:54;97891.69;;;3.53;100.00
58875;BME280;44652;49.040;12.126;2023-12-28T08:08:21;97880.50;;;3.56;100.00
58875;BME280;44652;49.040;12.126;2023-12-28T08:10:48;97875.03;;;3.51;100.00
58875;BME280;44652;49.040;12.126;2023-12-28T08:13:15;97883.50;;;3.17;100.00
58875;BME280;44652;49.040;12.126;2023-12-28T08:15:44;97863.41;;;3.15;100.00
58875;BME280;44652;49.040;12.126;2023-12-28T08:18:13;97855.94;;;3.21;100.00
58875;BME280;44652;49.040;12.126;2023-12-28T08:20:40;97850.84;;;3.08;100.00
58875;BME280;44652;49.040;12.126;2023-12-28T08:23:07;97856.66;;;3.04;100.00
58875;BME280;44652;49.040;12.126;2023-12-28T08:25:44;97864.19;;;2.99;100.00
58875;BME280;44652;49.040;12.126;2023-12-28T08:28:10;97862.13;;;3.08;100.00
58875;BME280;44652;49.040;12.126;2023-12-28T08:30:38;97884.69;;;3.23;100.00
58875;BME280;44652;49.040;12.126;2023-12-28T08:33:05;97894.28;;;3.09;100.00
58875;BME280;44652;49.040;12.126;2023-12-28T08:35:32;97891.69;;;3.38;100.00
58875;BME280;44652;49.040;12.126;2023-12-28T08:37:59;97885.31;;;3.19;100.00
58875;BME280;44652;49.040;12.126;2023-12-28T08:40:26;97902.34;;;3.13;100.00
58875;BME280;44652;49.040;12.126;2023-12-28T08:42:53;97904.25;;;3.16;100.00
58875;BME280;44652;49.040;12.126;2023-12-28T08:45:19;97895.16;;;2.95;100.00
58875;BME280;44652;49.040;12.126;2023-12-28T08:47:46;97904.63;;;3.07;100.00
58875;BME280;44652;49.040;12.126;2023-12-28T08:50:13;97885.66;;;3.25;100.00
58875;BME280;44652;49.040;12.126;2023-12-28T08:52:40;97918.44;;;3.36;100.00
58875;BME280;44652;49.040;12.126;2023-12-28T08:55:07;97922.22;;;3.26;100.00
58875;BME280;44652;49.040;12.126;2023-12-28T08:57:34;97916.41;;;3.30;100.00
58875;BME280;44652;49.040;12.126;2023-12-28T09:00:09;97897.72;;;3.23;100.00
58875;BME280;44652;49.040;12.126;2023-12-28T09:02:37;97910.00;;;3.40;100.00
58875;BME280;44652;49.040;12.126;2023-12-28T09:05:04;97898.94;;;3.29;100.00
58875;BME280;44652;49.040;12.126;2023-12-28T09:07:31;97932.28;;;3.79;100.00
58875;BME280;44652;49.040;12.126;2023-12-28T09:09:58;97914.56;;;3.59;100.00
58875;BME280;44652;49.040;12.126;2023-12-28T09:12:24;97916.56;;;3.48;100.00
58875;BME280;44652;49.040;12.126;2023-12-28T09:14:51;97911.44;;;3.64;100.00
58875;BME280;44652;49.040;12.126;2023-12-28T09:17:22;97915.13;;;3.53;100.00
58875;BME280;44652;49.040;12.126;2023-12-28T09:19:49;97910.69;;;3.67;100.00
58875;BME280;44652;49.040;12.126;2023-12-28T09:22:16;97903.63;;;3.50;100.00
58875;BME280;44652;49.040;12.126;2023-12-28T09:24:43;97920.22;;;3.66;100.00
58875;BME280;44652;49.040;12.126;2023-12-28T09:27:10;97916.09;;;3.70;100.00
58875;BME280;44652;49.040;12.126;2023-12-28T09:29:36;97926.00;;;3.76;100.00
58875;BME280;44652;49.040;12.126;2023-12-28T09:32:04;97932.19;;;3.63;100.00
58875;BME280;44652;49.040;12.126;2023-12-28T09:34:30;97914.25;;;3.53;100.00
58875;BME280;44652;49.040;12.126;2023-12-28T09:36:57;97932.13;;;4.07;100.00
58875;BME280;44652;49.040;12.126;2023-12-28T09:39:24;97916.72;;;3.81;100.00
58875;BME280;44652;49.040;12.126;2023-12-28T09:42:04;97909.31;;;3.88;100.00
58875;BME280;44652;49.040;12.126;2023-12-28T09:44:34;97895.41;;;3.73;100.00
58875;BME280;44652;49.040;12.126;2023-12-28T09:47:05;97893.44;;;4.15;100.00
58875;BME280;44652;49.040;12.126;2023-12-28T09:49:35;97879.50;;;4.31;100.00
58875;BME280;44652;49.040;12.126;2023-12-28T09:52:04;97887.00;;;3.94;100.00
58875;BME280;44652;49.040;12.126;2023-12-28T09:54:31;97886.59;;;4.17;100.00
58875;BME280;44652;49.040;12.126;2023-12-28T09:56:58;97873.91;;;3.92;100.00
58875;BME280;44652;49.040;12.126;2023-12-28T09:59:26;97899.47;;;4.14;100.00
58875;BME280;44652;49.040;12.126;2023-12-28T10:01:54;97909.44;;;4.21;100.00
58875;BME280;44652;49.040;12.126;2023-12-28T10:04:21;97896.19;;;4.02;100.00
58875;BME280;44652;49.040;12.126;2023-12-28T10:06:48;97897.25;;;4.05;100.00
58875;BME280;44652;49.040;12.126;2023-12-28T10:09:15;97890.06;;;4.32;100.00
58875;BME280;44652;49.040;12.126;2023-12-28T10:11:42;97891.38;;;4.41;100.00
58875;BME280;44652;49.040;12.126;2023-12-28T10:14:09;97875.16;;;3.99;100.00
58875;BME280;44652;49.040;12.126;2023-12-28T10:16:40;97879.69;;;3.86;100.00
58875;BME280;44652;49.040;12.126;2023-12-28T10:19:07;97878.94;;;3.89;100.00
58875;BME280;44652;49.040;12.126;2023-12-28T10:21:34;97865.81;;;3.87;100.00
58875;BME280;44652;49.040;12.126;2023-12-28T10:24:01;97892.66;;;4.32;100.00
58875;BME280;44652;49.040;12.126;2023-12-28T10:26:28;97862.34;;;4.03;100.00
58875;BME280;44652;49.040;12.126;2023-12-28T10:29:01;97884.25;;;4.38;100.00
58875;BME280;44652;49.040;12.126;2023-12-28T10:31:29;97882.56;;;4.07;100.00
58875;BME280;44652;49.040;12.126;2023-12-28T10:33:59;97849.94;;;3.83;100.00
58875;BME280;44652;49.040;12.126;2023-12-28T10:36:30;97847.59;;;4.04;100.00
58875;BME280;44652;49.040;12.126;2023-12-28T10:39:00;97864.75;;;4.15;100.00
58875;BME280;44652;49.040;12.126;2023-12-28T10:41:30;97854.47;;;4.02;100.00
58875;BME280;44652;49.040;12.126;2023-12-28T10:44:03;97845.81;;;4.03;100.00
58875;BME280;44652;49.040;12.126;2023-12-28T10:46:37;97867.88;;;4.41;100.00
58875;BME280;44652;49.040;12.126;2023-12-28T10:49:11;97848.91;;;4.12;100.00
58875;BME280;44652;49.040;12.126;2023-12-28T10:51:42;97850.59;;;3.95;100.00
58875;BME280;44652;49.040;12.126;2023-12-28T10:56:47;97856.03;;;4.14;100.00
58875;BME280;44652;49.040;12.126;2023-12-28T10:59:35;97855.44;;;4.04;100.00
58875;BME280;44652;49.040;12.126;2023-12-28T11:02:06;97824.00;;;3.86;100.00
58875;BME280;44652;49.040;12.126;2023-12-28T11:04:48;97833.50;;;4.00;100.00
58875;BME280;44652;49.040;12.126;2023-12-28T11:07:18;97816.97;;;4.16;100.00
58875;BME280;44652;49.040;12.126;2023-12-28T11:09:45;97814.84;;;4.09;100.00
58875;BME280;44652;49.040;12.126;2023-12-28T11:12:13;97827.41;;;4.16;100.00
58875;BME280;44652;49.040;12.126;2023-12-28T11:14:41;97824.56;;;4.11;100.00
58875;BME280;44652;49.040;12.126;2023-12-28T11:17:09;97811.81;;;4.01;100.00
58875;BME280;44652;49.040;12.126;2023-12-28T11:19:37;97809.06;;;4.14;100.00
58875;BME280;44652;49.040;12.126;2023-12-28T11:22:05;97803.28;;;4.04;100.00
58875;BME280;44652;49.040;12.126;2023-12-28T11:24:32;97797.09;;;4.02;100.00
58875;BME280;44652;49.040;12.126;2023-12-28T11:27:00;97795.97;;;4.13;100.00
58875;BME280;44652;49.040;12.126;2023-12-28T11:29:29;97794.25;;;4.30;100.00
58875;BME280;44652;49.040;12.126;2023-12-28T11:31:58;97811.63;;;4.29;100.00
58875;BME280;44652;49.040;12.126;2023-12-28T11:34:32;97804.59;;;4.28;100.00
58875;BME280;44652;49.040;12.126;2023-12-28T11:37:06;97785.66;;;4.00;100.00
58875;BME280;44652;49.040;12.126;2023-12-28T11:39:37;97781.75;;;4.08;100.00
58875;BME280;44652;49.040;12.126;2023-12-28T11:42:06;97794.56;;;4.20;100.00
58875;BME280;44652;49.040;12.126;2023-12-28T11:44:39;97763.41;;;4.39;100.00
58875;BME280;44652;49.040;12.126;2023-12-28T11:47:16;97790.81;;;4.63;100.00
58875;BME280;44652;49.040;12.126;2023-12-28T11:49:43;97791.69;;;4.64;100.00
58875;BME280;44652;49.040;12.126;2023-12-28T11:52:28;97795.22;;;4.48;100.00
58875;BME280;44652;49.040;12.126;2023-12-28T11:54:55;97789.84;;;4.45;100.00
58875;BME280;44652;49.040;12.126;2023-12-28T11:57:22;97808.75;;;4.41;100.00
58875;BME280;44652;49.040;12.126;2023-12-28T12:00:00;97800.75;;;4.38;100.00
58875;BME280;44652;49.040;12.126;2023-12-28T12:02:30;97814.13;;;4.60;100.00
58875;BME280;44652;49.040;12.126;2023-12-28T12:04:56;97808.34;;;4.66;100.00
58875;BME280;44652;49.040;12.126;2023-12-28T12:07:24;97812.16;;;4.73;100.00
58875;BME280;44652;49.040;12.126;2023-12-28T12:09:58;97828.16;;;4.62;100.00
58875;BME280;44652;49.040;12.126;2023-12-28T12:12:26;97806.63;;;4.67;100.00
58875;BME280;44652;49.040;12.126;2023-12-28T12:14:53;97819.03;;;4.71;100.00
58875;BME280;44652;49.040;12.126;2023-12-28T12:17:19;97796.19;;;4.50;100.00
58875;BME280;44652;49.040;12.126;2023-12-28T12:19:46;97820.31;;;4.79;100.00
58875;BME280;44652;49.040;12.126;2023-12-28T12:22:16;97807.84;;;4.57;100.00
58875;BME280;44652;49.040;12.126;2023-12-28T12:24:44;97811.66;;;4.80;100.00
58875;BME280;44652;49.040;12.126;2023-12-28T12:27:13;97803.91;;;4.65;100.00
58875;BME280;44652;49.040;12.126;2023-12-28T12:29:40;97803.75;;;4.62;100.00
58875;BME280;44652;49.040;12.126;2023-12-28T12:32:07;97805.97;;;4.54;100.00
58875;BME280;44652;49.040;12.126;2023-12-28T12:34:34;97822.78;;;4.59;100.00
58875;BME280;44652;49.040;12.126;2023-12-28T12:37:01;97822.28;;;4.67;100.00
58875;BME280;44652;49.040;12.126;2023-12-28T12:39:29;97807.41;;;4.66;100.00
58875;BME280;44652;49.040;12.126;2023-12-28T12:41:56;97805.81;;;4.68;100.00
58875;BME280;44652;49.040;12.126;2023-12-28T12:44:23;97783.13;;;4.50;100.00
58875;BME280;44652;49.040;12.126;2023-12-28T12:46:57;97783.81;;;4.97;100.00
58875;BME280;44652;49.040;12.126;2023-12-28T12:49:25;97796.88;;;4.80;100.00
58875;BME280;44652;49.040;12.126;2023-12-28T12:51:53;97805.94;;;4.87;100.00
58875;BME280;44652;49.040;12.126;2023-12-28T12:54:20;97783.19;;;4.68;100.00
58875;BME280;44652;49.040;12.126;2023-12-28T12:56:47;97803.00;;;4.81;100.00
58875;BME280;44652;49.040;12.126;2023-12-28T12:59:14;97778.97;;;4.70;100.00
58875;BME280;44652;49.040;12.126;2023-12-28T13:01:44;97791.66;;;4.80;100.00
58875;BME280;44652;49.040;12.126;2023-12-28T13:04:12;97775.94;;;4.79;100.00
58875;BME280;44652;49.040;12.126;2023-12-28T13:06:39;97779.25;;;4.76;100.00
58875;BME280;44652;49.040;12.126;2023-12-28T13:09:06;97777.81;;;4.99;100.00
58875;BME280;44652;49.040;12.126;2023-12-28T13:11:34;97765.53;;;4.80;100.00
58875;BME280;44652;49.040;12.126;2023-12-28T13:14:01;97764.66;;;4.80;100.00
58875;BME280;44652;49.040;12.126;2023-12-28T13:16:28;97750.09;;;4.67;100.00
58875;BME280;44652;49.040;12.126;2023-12-28T13:18:54;97768.47;;;4.86;100.00
58875;BME280;44652;49.040;12.126;2023-12-28T13:21:21;97752.59;;;4.66;100.00
58875;BME280;44652;49.040;12.126;2023-12-28T13:23:48;97772.69;;;5.01;100.00
58875;BME280;44652;49.040;12.126;2023-12-28T13:26:15;97777.28;;;4.88;100.00
58875;BME280;44652;49.040;12.126;2023-12-28T13:28:42;97748.53;;;4.71;100.00
58875;BME280;44652;49.040;12.126;2023-12-28T13:31:09;97732.03;;;4.72;99.66
58875;BME280;44652;49.040;12.126;2023-12-28T13:33:36;97738.34;;;4.93;98.83
58875;BME280;44652;49.040;12.126;2023-12-28T13:36:03;97742.91;;;5.15;98.05
58875;BME280;44652;49.040;12.126;2023-12-28T13:38:29;97739.81;;;4.88;98.84
58875;BME280;44652;49.040;12.126;2023-12-28T13:40:57;97757.03;;;5.01;99.00
58875;BME280;44652;49.040;12.126;2023-12-28T13:43:24;97758.75;;;5.00;100.00
58875;BME280;44652;49.040;12.126;2023-12-28T13:45:51;97746.19;;;4.93;100.00
58875;BME280;44652;49.040;12.126;2023-12-28T13:48:17;97768.66;;;5.07;99.68
58875;BME280;44652;49.040;12.126;2023-12-28T13:50:44;97770.84;;;5.16;98.15
58875;BME280;44652;49.040;12.126;2023-12-28T13:53:11;97756.56;;;5.09;98.42
58875;BME280;44652;49.040;12.126;2023-12-28T13:55:38;97746.06;;;5.08;98.98
58875;BME280;44652;49.040;12.126;2023-12-28T13:58:04;97759.91;;;5.07;100.00
58875;BME280;44652;49.040;12.126;2023-12-28T14:00:31;97761.84;;;5.11;100.00
58875;BME280;44652;49.040;12.126;2023-12-28T14:02:58;97749.09;;;4.99;100.00
58875;BME280;44652;49.040;12.126;2023-12-28T14:05:26;97766.56;;;5.00;100.00
58875;BME280;44652;49.040;12.126;2023-12-28T14:07:56;97739.75;;;4.86;100.00
58875;BME280;44652;49.040;12.126;2023-12-28T14:10:23;97766.94;;;5.08;100.00
58875;BME280;44652;49.040;12.126;2023-12-28T14:12:49;97743.41;;;4.90;100.00
58875;BME280;44652;49.040;12.126;2023-12-28T14:15:16;97741.69;;;4.91;100.00
58875;BME280;44652;49.040;12.126;2023-12-28T14:17:43;97755.19;;;5.00;100.00
58875;BME280;44652;49.040;12.126;2023-12-28T14:20:10;97748.69;;;4.92;100.00
58875;BME280;44652;49.040;12.126;2023-12-28T14:22:39;97760.88;;;4.91;100.00
58875;BME280;44652;49.040;12.126;2023-12-28T14:25:06;97765.75;;;5.01;100.00
58875;BME280;44652;49.040;12.126;2023-12-28T14:27:33;97764.47;;;5.11;100.00
58875;BME280;44652;49.040;12.126;2023-12-28T14:30:00;97787.13;;;5.28;97.19
58875;BME280;44652;49.040;12.126;2023-12-28T14:32:30;97783.75;;;5.31;98.82
58875;BME280;44652;49.040;12.126;2023-12-28T14:34:57;97772.19;;;5.08;100.00
58875;BME280;44652;49.040;12.126;2023-12-28T14:37:24;97761.91;;;4.95;100.00
58875;BME280;44652;49.040;12.126;2023-12-28T14:39:51;97771.13;;;5.04;100.00
58875;BME280;44652;49.040;12.126;2023-12-28T14:42:18;97784.47;;;4.93;100.00
58875;BME280;44652;49.040;12.126;2023-12-28T14:44:45;97757.03;;;4.84;100.00
58875;BME280;44652;49.040;12.126;2023-12-28T14:47:11;97759.25;;;4.93;100.00
58875;BME280;44652;49.040;12.126;2023-12-28T14:49:38;97760.97;;;4.93;100.00
58875;BME280;44652;49.040;12.126;2023-12-28T14:52:05;97772.25;;;5.09;100.00
58875;BME280;44652;49.040;12.126;2023-12-28T14:54:32;97756.63;;;4.93;100.00
58875;BME280;44652;49.040;12.126;2023-12-28T14:56:59;97751.09;;;4.87;100.00
58875;BME280;44652;49.040;12.126;2023-12-28T14:59:25;97764.84;;;5.01;97.56
58875;BME280;44652;49.040;12.126;2023-12-28T15:01:52;97755.84;;;5.12;96.73
58875;BME280;44652;49.040;12.126;2023-12-28T15:04:19;97782.72;;;5.27;97.56
58875;BME280;44652;49.040;12.126;2023-12-28T15:06:51;97761.47;;;5.03;97.88
58875;BME280;44652;49.040;12.126;2023-12-28T15:09:17;97770.97;;;5.01;99.58
58875;BME280;44652;49.040;12.126;2023-12-28T15:11:44;97772.03;;;5.05;99.92
58875;BME280;44652;49.040;12.126;2023-12-28T15:14:15;97765.25;;;5.08;99.90
58875;BME280;44652;49.040;12.126;2023-12-28T15:16:43;97770.88;;;5.00;100.00
58875;BME280;44652;49.040;12.126;2023-12-28T15:19:14;97788.66;;;5.07;100.00
58875;BME280;44652;49.040;12.126;2023-12-28T15:21:41;97789.41;;;5.04;100.00
58875;BME280;44652;49.040;12.126;2023-12-28T15:24:08;97789.31;;;5.03;100.00
58875;BME280;44652;49.040;12.126;2023-12-28T15:26:35;97797.38;;;5.07;100.00
58875;BME280;44652;49.040;12.126;2023-12-28T15:29:03;97774.31;;;4.99;100.00
58875;BME280;44652;49.040;12.126;2023-12-28T15:31:30;97774.41;;;5.00;99.68
58875;BME280;44652;49.040;12.126;2023-12-28T15:33:57;97767.38;;;4.99;98.13
58875;BME280;44652;49.040;12.126;2023-12-28T15:36:23;97767.47;;;5.01;98.46
58875;BME280;44652;49.040;12.126;2023-12-28T15:38:53;97774.91;;;5.11;98.10
58875;BME280;44652;49.040;12.126;2023-12-28T15:41:20;97772.41;;;5.12;97.97
58875;BME280;44652;49.040;12.126;2023-12-28T15:43:47;97784.28;;;5.24;97.70
58875;BME280;44652;49.040;12.126;2023-12-28T15:46:13;97770.91;;;5.18;96.61
58875;BME280;44652;49.040;12.126;2023-12-28T15:48:40;97762.91;;;5.15;95.91
58875;BME280;44652;49.040;12.126;2023-12-28T15:51:10;97759.50;;;5.16;96.37
58875;BME280;44652;49.040;12.126;2023-12-28T15:53:37;97763.06;;;5.18;96.16
58875;BME280;44652;49.040;12.126;2023-12-28T15:56:05;97767.56;;;5.20;95.14
58875;BME280;44652;49.040;12.126;2023-12-28T15:58:44;97767.78;;;5.25;95.05
58875;BME280;44652;49.040;12.126;2023-12-28T16:01:11;97778.25;;;5.43;94.26
58875;BME280;44652;49.040;12.126;2023-12-28T16:03:38;97756.66;;;5.29;95.42
58875;BME280;44652;49.040;12.126;2023-12-28T16:06:07;97784.56;;;5.48;95.08
58875;BME280;44652;49.040;12.126;2023-12-28T16:08:35;97757.63;;;5.31;93.97
58875;BME280;44652;49.040;12.126;2023-12-28T16:11:02;97751.72;;;5.35;93.84
58875;BME280;44652;49.040;12.126;2023-12-28T16:13:30;97771.06;;;5.39;94.62
58875;BME280;44652;49.040;12.126;2023-12-28T16:15:57;97752.47;;;5.32;95.83
58875;BME280;44652;49.040;12.126;2023-12-28T16:18:24;97739.25;;;5.29;94.51
58875;BME280;44652;49.040;12.126;2023-12-28T16:20:52;97725.59;;;5.35;94.30
58875;BME280;44652;49.040;12.126;2023-12-28T16:23:19;97735.66;;;5.45;94.68
58875;BME280;44652;49.040;12.126;2023-12-28T16:25:46;97714.75;;;5.45;92.76
58875;BME280;44652;49.040;12.126;2023-12-28T16:28:30;97679.88;;;5.45;93.09
58875;BME280;44652;49.040;12.126;2023-12-28T16:31:35;97691.88;;;5.59;95.00
58875;BME280;44652;49.040;12.126;2023-12-28T16:38:53;97679.25;;;5.31;94.19
58875;BME280;44652;49.040;12.126;2023-12-28T16:41:20;97734.13;;;5.68;93.61
58875;BME280;44652;49.040;12.126;2023-12-28T16:43:47;97742.84;;;5.49;94.19
58875;BME280;44652;49.040;12.126;2023-12-28T16:46:15;97717.75;;;5.35;95.54
58875;BME280;44652;49.040;12.126;2023-12-28T16:48:43;97701.47;;;5.41;95.11
58875;BME280;44652;49.040;12.126;2023-12-28T16:51:10;97693.25;;;5.33;96.53
58875;BME280;44652;49.040;12.126;2023-12-28T16:53:37;97710.97;;;5.39;95.95
58875;BME280;44652;49.040;12.126;2023-12-28T16:56:04;97711.81;;;5.20;96.42
58875;BME280;44652;49.040;12.126;2023-12-28T16:58:31;97724.78;;;5.18;97.46
58875;BME280;44652;49.040;12.126;2023-12-28T17:00:58;97711.44;;;5.12;98.57
58875;BME280;44652;49.040;12.126;2023-12-28T17:03:24;97731.19;;;5.25;99.63
58875;BME280;44652;49.040;12.126;2023-12-28T17:05:51;97717.91;;;5.20;99.12
58875;BME280;44652;49.040;12.126;2023-12-28T17:08:18;97741.22;;;5.16;100.00
58875;BME280;44652;49.040;12.126;2023-12-28T17:10:45;97725.69;;;5.01;100.00
58875;BME280;44652;49.040;12.126;2023-12-28T17:13:13;97728.97;;;4.97;100.00
58875;BME280;44652;49.040;12.126;2023-12-28T17:15:40;97729.09;;;5.00;100.00
58875;BME280;44652;49.040;12.126;2023-12-28T17:18:07;97721.63;;;4.90;100.00
58875;BME280;44652;49.040;12.126;2023-12-28T17:20:35;97741.13;;;5.14;100.00
58875;BME280;44652;49.040;12.126;2023-12-28T17:23:12;97732.69;;;5.02;100.00
58875;BME280;44652;49.040;12.126;2023-12-28T17:26:10;97739.41;;;4.97;100.00
58875;BME280;44652;49.040;12.126;2023-12-28T17:28:53;97715.19;;;4.83;100.00
58875;BME280;44652;49.040;12.126;2023-12-28T17:31:23;97734.09;;;4.95;100.00
58875;BME280;44652;49.040;12.126;2023-12-28T17:33:50;97711.03;;;4.86;100.00
58875;BME280;44652;49.040;12.126;2023-12-28T17:36:17;97714.69;;;4.90;100.00
58875;BME280;44652;49.040;12.126;2023-12-28T17:38:44;97731.69;;;5.00;100.00
58875;BME280;44652;49.040;12.126;2023-12-28T17:41:12;97713.88;;;4.91;100.00
58875;BME280;44652;49.040;12.126;2023-12-28T17:43:51;97734.94;;;5.12;100.00
58875;BME280;44652;49.040;12.126;2023-12-28T17:46:49;97731.50;;;5.31;100.00
58875;BME280;44652;49.040;12.126;2023-12-28T17:49:26;97712.91;;;5.07;100.00
58875;BME280;44652;49.040;12.126;2023-12-28T17:52:00;97721.25;;;5.18;100.00
58875;BME280;44652;49.040;12.126;2023-12-28T17:54:31;97732.22;;;5.10;100.00
58875;BME280;44652;49.040;12.126;2023-12-28T17:56:58;97738.34;;;5.11;100.00
58875;BME280;44652;49.040;12.126;2023-12-28T17:59:24;97726.41;;;4.98;100.00
58875;BME280;44652;49.040;12.126;2023-12-28T18:01:56;97738.41;;;4.95;100.00
58875;BME280;44652;49.040;12.126;2023-12-28T18:04:23;97720.38;;;4.81;100.00
58875;BME280;44652;49.040;12.126;2023-12-28T18:06:50;97715.88;;;4.79;100.00
58875;BME280;44652;49.040;12.126;2023-12-28T18:09:19;97714.47;;;4.85;100.00
58875;BME280;44652;49.040;12.126;2023-12-28T18:11:49;97714.53;;;4.87;100.00
58875;BME280;44652;49.040;12.126;2023-12-28T18:14:16;97726.28;;;5.13;100.00
58875;BME280;44652;49.040;12.126;2023-12-28T18:16:43;97739.47;;;4.98;100.00
58875;BME280;44652;49.040;12.126;2023-12-28T18:19:10;97739.91;;;4.90;100.00
58875;BME280;44652;49.040;12.126;2023-12-28T18:21:37;97734.03;;;4.94;100.00
58875;BME280;44652;49.040;12.126;2023-12-28T18:24:07;97739.97;;;4.91;100.00
58875;BME280;44652;49.040;12.126;2023-12-28T18:26:34;97739.31;;;4.95;100.00
58875;BME280;44652;49.040;12.126;2023-12-28T18:29:00;97756.41;;;5.06;100.00
58875;BME280;44652;49.040;12.126;2023-12-28T18:31:27;97753.06;;;5.09;100.00
58875;BME280;44652;49.040;12.126;2023-12-28T18:33:54;97758.06;;;5.04;100.00
58875;BME280;44652;49.040;12.126;2023-12-28T18:36:21;97737.75;;;4.99;100.00
58875;BME280;44652;49.040;12.126;2023-12-28T18:38:47;97744.03;;;5.02;100.00
58875;BME280;44652;49.040;12.126;2023-12-28T18:41:14;97751.56;;;5.14;100.00
58875;BME280;44652;49.040;12.126;2023-12-28T18:43:41;97751.56;;;5.14;100.00
58875;BME280;44652;49.040;12.126;2023-12-28T18:46:07;97745.66;;;5.18;100.00
58875;BME280;44652;49.040;12.126;2023-12-28T18:48:34;97747.09;;;5.11;100.00
58875;BME280;44652;49.040;12.126;2023-12-28T18:51:01;97740.00;;;5.09;100.00
58875;BME280;44652;49.040;12.126;2023-12-28T18:53:27;97749.44;;;5.23;100.00
58875;BME280;44652;49.040;12.126;2023-12-28T18:55:54;97750.22;;;5.22;100.00
58875;BME280;44652;49.040;12.126;2023-12-28T18:58:21;97743.94;;;5.19;100.00
58875;BME280;44652;49.040;12.126;2023-12-28T19:00:49;97743.38;;;5.24;100.00
58875;BME280;44652;49.040;12.126;2023-12-28T19:03:16;97745.75;;;5.37;100.00
58875;BME280;44652;49.040;12.126;2023-12-28T19:05:42;97747.25;;;5.32;100.00
58875;BME280;44652;49.040;12.126;2023-12-28T19:08:09;97735.69;;;5.27;100.00
58875;BME280;44652;49.040;12.126;2023-12-28T19:10:36;97733.66;;;5.22;100.00
58875;BME280;44652;49.040;12.126;2023-12-28T19:13:03;97732.16;;;5.09;100.00
58875;BME280;44652;49.040;12.126;2023-12-28T19:15:30;97727.78;;;5.08;100.00
58875;BME280;44652;49.040;12.126;2023-12-28T19:17:57;97707.97;;;4.95;100.00
58875;BME280;44652;49.040;12.126;2023-12-28T19:20:24;97713.06;;;5.10;100.00
58875;BME280;44652;49.040;12.126;2023-12-28T19:22:51;97706.75;;;4.88;100.00
58875;BME280;44652;49.040;12.126;2023-12-28T19:25:18;97704.75;;;4.83;100.00
58875;BME280;44652;49.040;12.126;2023-12-28T19:27:46;97706.00;;;4.73;100.00
58875;BME280;44652;49.040;12.126;2023-12-28T19:30:13;97706.09;;;4.75;100.00
58875;BME280;44652;49.040;12.126;2023-12-28T19:32:40;97726.63;;;4.85;100.00
58875;BME280;44652;49.040;12.126;2023-12-28T19:35:07;97694.44;;;4.68;100.00
58875;BME280;44652;49.040;12.126;2023-12-28T19:37:36;97696.19;;;4.85;100.00
58875;BME280;44652;49.040;12.126;2023-12-28T19:40:03;97718.59;;;5.16;100.00
58875;BME280;44652;49.040;12.126;2023-12-28T19:42:32;97720.72;;;5.07;100.00
58875;BME280;44652;49.040;12.126;2023-12-28T19:44:59;97705.66;;;4.83;100.00
58875;BME280;44652;49.040;12.126;2023-12-28T19:47:26;97695.22;;;4.83;100.00
58875;BME280;44652;49.040;12.126;2023-12-28T19:49:52;97714.09;;;4.96;100.00
58875;BME280;44652;49.040;12.126;2023-12-28T19:52:19;97722.44;;;5.06;100.00
58875;BME280;44652;49.040;12.126;2023-12-28T19:54:48;97702.75;;;4.95;100.00
58875;BME280;44652;49.040;12.126;2023-12-28T19:57:15;97698.13;;;4.90;100.00
58875;BME280;44652;49.040;12.126;2023-12-28T19:59:42;97703.19;;;4.86;100.00
58875;BME280;44652;49.040;12.126;2023-12-28T20:02:08;97699.09;;;4.92;100.00
58875;BME280;44652;49.040;12.126;2023-12-28T20:04:37;97707.56;;;5.04;100.00
58875;BME280;44652;49.040;12.126;2023-12-28T20:07:04;97704.09;;;5.05;100.00
58875;BME280;44652;49.040;12.126;2023-12-28T20:09:32;97699.59;;;4.84;100.00